ADDS METAR Data

Data at: 0516 UTC 19 Jan 2018

METAR for:KIJD (Willimantic/Windhan, CT, US)
Text:KIJD 190452Z AUTO 00000KT 10SM CLR M06/M11 A3000 RMK AO2 SLP161 T10611106 410111100
Temperature: -6.1°C ( 21°F)
Dewpoint:-10.6°C ( 13°F) [RH = 70%]
Pressure (altimeter):30.00 inches Hg (1016.0 mb) [Sea level pressure: 1016.1 mb]
Winds:calm
Visibility:10 or more sm (16+ km)
Ceiling:at least 12,000 feet AGL
Clouds:sky clear below 12,000 feet AGL
QC Flag:automated observation with no human augmentation